地図

経路データ

SID SEASON NUMBER BASIN SUBBASIN NAME ISO_TIME NATURE LAT LON WMO_WIND WMO_PRES WMO_AGENCY TRACK_TYPE DIST2LAND LANDFALL IFLAG USA_AGENCY USA_ATCF_ID USA_LAT USA_LON USA_RECORD USA_STATUS USA_WIND USA_PRES USA_SSHS USA_R34_NE USA_R34_SE USA_R34_SW USA_R34_NW USA_R50_NE USA_R50_SE USA_R50_SW USA_R50_NW USA_R64_NE USA_R64_SE USA_R64_SW USA_R64_NW USA_POCI USA_ROCI USA_RMW USA_EYE TOKYO_LAT TOKYO_LON TOKYO_GRADE TOKYO_WIND TOKYO_PRES TOKYO_R50_DIR TOKYO_R50_LONG TOKYO_R50_SHORT TOKYO_R30_DIR TOKYO_R30_LONG TOKYO_R30_SHORT TOKYO_LAND CMA_LAT CMA_LON CMA_CAT CMA_WIND CMA_PRES HKO_LAT HKO_LON HKO_CAT HKO_WIND HKO_PRES NEWDELHI_LAT NEWDELHI_LON NEWDELHI_GRADE NEWDELHI_WIND NEWDELHI_PRES NEWDELHI_CI NEWDELHI_DP NEWDELHI_POCI REUNION_LAT REUNION_LON REUNION_TYPE REUNION_WIND REUNION_PRES REUNION_TNUM REUNION_CI REUNION_RMW REUNION_R34_NE REUNION_R34_SE REUNION_R34_SW REUNION_R34_NW REUNION_R50_NE REUNION_R50_SE REUNION_R50_SW REUNION_R50_NW REUNION_R64_NE REUNION_R64_SE REUNION_R64_SW REUNION_R64_NW BOM_LAT BOM_LON BOM_TYPE BOM_WIND BOM_PRES BOM_TNUM BOM_CI BOM_RMW BOM_R34_NE BOM_R34_SE BOM_R34_SW BOM_R34_NW BOM_R50_NE BOM_R50_SE BOM_R50_SW BOM_R50_NW BOM_R64_NE BOM_R64_SE BOM_R64_SW BOM_R64_NW BOM_ROCI BOM_POCI BOM_EYE BOM_POS_METHOD BOM_PRES_METHOD NADI_LAT NADI_LON NADI_CAT NADI_WIND NADI_PRES WELLINGTON_LAT WELLINGTON_LON WELLINGTON_WIND WELLINGTON_PRES DS824_LAT DS824_LON DS824_STAGE DS824_WIND DS824_PRES TD9636_LAT TD9636_LON TD9636_STAGE TD9636_WIND TD9636_PRES TD9635_LAT TD9635_LON TD9635_WIND TD9635_PRES TD9635_ROCI NEUMANN_LAT NEUMANN_LON NEUMANN_CLASS NEUMANN_WIND NEUMANN_PRES MLC_LAT MLC_LON MLC_CLASS MLC_WIND MLC_PRES USA_GUST BOM_GUST BOM_GUST_PER REUNION_GUST REUNION_GUST_PER USA_SEAHGT USA_SEARAD_NE USA_SEARAD_SE USA_SEARAD_SW USA_SEARAD_NW STORM_SPEED STORM_DIR
1937038S18110 1937 7 SI WA NOT_NAMED 1937-02-06 23:00:00 NR -18.2000 110.100 main 580 565 __________O___ -1 -18.2000 110.100 7 5 126
1937038S18110 1937 7 SI WA NOT_NAMED 1937-02-07 00:00:00 NR -18.2524 110.170 main 565 565 __________P___ -1 -18.2524 110.170 7 22 347
1937038S18110 1937 7 SI WA NOT_NAMED 1937-02-07 01:00:00 NR -17.4787 109.931 bom main 652 652 ______O___P___ -1 -15.0000 109.000 -18.3049 110.241 7 19 346
1937038S18110 1937 7 SI WA NOT_NAMED 1937-02-07 03:00:00 NR -17.3595 109.940 main 661 661 ______P___P___ -1 -15.2548 109.059 -18.4118 110.380 7 2 11
1937038S18110 1937 7 SI WA NOT_NAMED 1937-02-07 06:00:00 NR -17.3187 109.970 main 663 654 ______P___P___ -1 -15.6366 109.151 -18.5803 110.584 7 1 113
1937038S18110 1937 7 SI WA NOT_NAMED 1937-02-07 09:00:00 NR -17.3910 110.013 main 654 630 ______P___P___ -1 -16.0172 109.248 -18.7647 110.778 7 4 154
1937038S18110 1937 7 SI WA NOT_NAMED 1937-02-07 11:00:00 NR -17.5850 110.109 main 630 622 ______P___O___ -1 -16.2700 109.317 -18.9000 110.900 7 7 155
1937038S18110 1937 7 SI WA NOT_NAMED 1937-02-07 12:00:00 NR -17.6840 110.156 main 615 582 ______P___P___ -1 -16.3960 109.354 -18.9720 110.958 7 7 156
1937038S18110 1937 7 SI WA NOT_NAMED 1937-02-07 15:00:00 NR -17.9864 110.297 main 582 550 ______P___P___ -1 -16.7724 109.472 -19.2004 111.121 7 7 156
1937038S18110 1937 7 SI WA NOT_NAMED 1937-02-07 18:00:00 NR -18.2906 110.439 main 550 511 ______P___P___ -1 -17.1455 109.607 -19.4356 111.271 7 7 156
1937038S18110 1937 7 SI WA NOT_NAMED 1937-02-07 21:00:00 NR -18.5883 110.585 main 511 488 ______P___P___ -1 -17.5148 109.760 -19.6618 111.411 7 7 154
1937038S18110 1937 7 SI WA NOT_NAMED 1937-02-07 23:00:00 NR -18.7793 110.687 main 488 480 ______P___O___ -1 -17.7585 109.874 -19.8000 111.500 7 6 153
1937038S18110 1937 7 SI WA NOT_NAMED 1937-02-08 00:00:00 NR -18.8692 110.742 main 480 473 ______P___P___ -1 -17.8796 109.936 -19.8588 111.549 7 6 150
1937038S18110 1937 7 SI WA NOT_NAMED 1937-02-08 01:00:00 NR -18.9572 110.799 bom main 465 449 ______O___P___ -1 -18.0000 110.000 -19.9145 111.597 7 6 148
1937038S18110 1937 7 SI WA NOT_NAMED 1937-02-08 03:00:00 NR -19.1289 110.914 main 449 411 ______P___P___ -1 -18.2395 110.137 -20.0183 111.691 7 6 147
1937038S18110 1937 7 SI WA NOT_NAMED 1937-02-08 06:00:00 NR -19.3810 111.089 main 411 388 ______P___P___ -1 -18.6001 110.356 -20.1619 111.822 7 6 147
1937038S18110 1937 7 SI WA NOT_NAMED 1937-02-08 09:00:00 NR -19.6364 111.258 main 380 357 ______P___P___ -1 -18.9707 110.580 -20.3022 111.936 7 6 149
1937038S18110 1937 7 SI WA NOT_NAMED 1937-02-08 11:00:00 NR -19.8139 111.363 main 357 350 ______P___O___ -1 -19.2278 110.725 -20.4000 112.000 7 6 151
1937038S18110 1937 7 SI WA NOT_NAMED 1937-02-08 12:00:00 NR -19.8929 111.412 main 350 328 ______P___P___ -1 -19.3604 110.795 -20.4254 112.028 7 5 152
1937038S18110 1937 7 SI WA NOT_NAMED 1937-02-08 15:00:00 NR -20.1369 111.542 main 328 300 ______P___P___ -1 -19.7787 110.989 -20.4951 112.096 7 6 158
1937038S18110 1937 7 SI WA NOT_NAMED 1937-02-08 18:00:00 NR -20.4229 111.646 main 300 268 ______P___P___ -1 -20.2351 111.146 -20.6106 112.145 7 7 166
1937038S18110 1937 7 SI WA NOT_NAMED 1937-02-08 21:00:00 NR -20.7914 111.718 main 268 253 ______P___P___ -1 -20.7390 111.255 -20.8437 112.180 7 8 172
1937038S18110 1937 7 SI WA NOT_NAMED 1937-02-08 23:00:00 NR -21.1030 111.746 main 253 234 ______P___O___ -1 -21.1061 111.293 -21.1000 112.200 7 10 175
1937038S18110 1937 7 SI WA NOT_NAMED 1937-02-09 00:00:00 NR -21.2834 111.763 bom main 234 228 ______O___P___ -1 -21.3000 111.300 -21.2669 112.227 7 11 174
1937038S18110 1937 7 SI WA NOT_NAMED 1937-02-09 01:00:00 NR -21.4781 111.777 bom main 222 201 ______O___P___ -1 -21.5000 111.300 -21.4562 112.255 7 13 176
1937038S18110 1937 7 SI WA NOT_NAMED 1937-02-09 03:00:00 NR -21.9049 111.806 main 201 184 ______P___P___ -1 -21.9148 111.304 -21.8951 112.308 7 14 177
1937038S18110 1937 7 SI WA NOT_NAMED 1937-02-09 06:00:00 NR -22.6303 111.842 main 184 172 ______P___P___ -1 -22.5826 111.320 -22.6781 112.364 7 15 178
1937038S18110 1937 7 SI WA NOT_NAMED 1937-02-09 09:00:00 NR -23.4407 111.854 main 172 163 ______P___P___ -1 -23.3123 111.351 -23.5691 112.357 7 17 0
1937038S18110 1937 7 SI WA NOT_NAMED 1937-02-09 11:00:00 NR -24.0186 111.840 main 168 162 ______P___O___ -1 -23.8372 111.380 -24.2000 112.300 7 18 183
1937038S18110 1937 7 SI WA NOT_NAMED 1937-02-09 12:00:00 NR -24.3127 111.818 main 162 161 ______P___P___ -1 -24.1122 111.397 -24.5131 112.240 7 19 185
1937038S18110 1937 7 SI WA NOT_NAMED 1937-02-09 15:00:00 NR -25.2485 111.722 main 179 163 ______P___P___ -1 -24.9907 111.459 -25.5063 111.986 7 20 186
1937038S18110 1937 7 SI WA NOT_NAMED 1937-02-09 18:00:00 NR -26.2475 111.599 main 169 169 ______P___P___ -1 -25.9565 111.538 -26.5385 111.659 7 21 186
1937038S18110 1937 7 SI WA NOT_NAMED 1937-02-09 21:00:00 NR -27.2872 111.475 main 210 210 ______P___P___ -1 -27.0185 111.636 -27.5560 111.314 7 21 186
1937038S18110 1937 7 SI WA NOT_NAMED 1937-02-09 23:00:00 NR -27.9922 111.407 main 261 261 ______P___O___ -1 -27.7845 111.713 -28.2000 111.100 7 21 185
1937038S18110 1937 7 SI WA NOT_NAMED 1937-02-10 00:00:00 NR -28.3372 111.377 main 270 270 ______P___P___ -1 -28.1859 111.755 -28.4884 110.999 7 21 185
1937038S18110 1937 7 SI WA NOT_NAMED 1937-02-10 01:00:00 NR -28.6841 111.350 bom main 281 281 ______O___P___ -1 -28.6000 111.800 -28.7683 110.900 7 21 187
1937038S18110 1937 7 SI WA NOT_NAMED 1937-02-10 03:00:00 NR -29.3752 111.220 main 326 326 ______P___P___ -1 -29.4651 111.897 -29.3078 110.712 7 20 190
1937038S18110 1937 7 SI WA NOT_NAMED 1937-02-10 06:00:00 NR -30.3350 111.002 main 385 379 ______P___P___ -1 -30.8305 112.057 -30.0873 110.475 7 18 195
1937038S18110 1937 7 SI WA NOT_NAMED 1937-02-10 08:30:00 NR -30.9869 110.716 bom main 423 423 ______O___P___ -1 -32.0000 112.200 -30.7336 110.345 7 16 227
1937038S18110 1937 7 SI WA NOT_NAMED 1937-02-10 09:00:00 NR -30.8645 110.328 main 460 460 __________P___ -1 -30.8645 110.328 7 13 221
1937038S18110 1937 7 SI WA NOT_NAMED 1937-02-10 11:00:00 NR -31.4000 110.300 main 467 467 __________O___ -1 -31.4000 110.300 7 16 0
1937038S18110 1937 7 SI WA NOT_NAMED 1937-02-10 12:00:00 NR -31.6767 110.311 main 475 445 __________P___ -1 -31.6767 110.311 7 17 175
1937038S18110 1937 7 SI WA NOT_NAMED 1937-02-10 15:00:00 NR -32.5415 110.435 main 445 398 __________P___ -1 -32.5415 110.435 7 18 170
1937038S18110 1937 7 SI WA NOT_NAMED 1937-02-10 18:00:00 NR -33.4462 110.668 main 398 367 __________P___ -1 -33.4462 110.668 7 19 166
1937038S18110 1937 7 SI WA NOT_NAMED 1937-02-10 21:00:00 NR -34.3750 110.974 main 368 358 __________P___ -1 -34.3750 110.974 7 19 164
1937038S18110 1937 7 SI WA NOT_NAMED 1937-02-10 23:00:00 NR -35.0000 111.200 main 361 __________O___ -1 -35.0000 111.200 7 20 163

IBTrACS Databaseについて

本データベースは、米国NOAAが公開する1842年以降の世界の熱帯低気圧のベストトラックデータアーカイブInternational Best Track Archive for Climate Stewardship (IBTrACS)を、ウェブで閲覧しやすい形式に変換したものです。

最終更新日:2021-12-03